sensor_id;sensor_type;location;lat;lon;timestamp;P1;durP1;ratioP1;P2;durP2;ratioP2
72573;SDS011;60603;52.548;13.420;2023-11-22T00:01:18;7.95;;;3.35;;
72573;SDS011;60603;52.548;13.420;2023-11-22T00:03:45;6.53;;;3.10;;
72573;SDS011;60603;52.548;13.420;2023-11-22T00:06:12;9.50;;;4.13;;
72573;SDS011;60603;52.548;13.420;2023-11-22T00:08:39;8.13;;;3.35;;
72573;SDS011;60603;52.548;13.420;2023-11-22T00:11:06;8.77;;;3.88;;
72573;SDS011;60603;52.548;13.420;2023-11-22T00:13:33;9.00;;;3.60;;
72573;SDS011;60603;52.548;13.420;2023-11-22T00:15:59;6.80;;;3.20;;
72573;SDS011;60603;52.548;13.420;2023-11-22T00:18:27;6.65;;;3.40;;
72573;SDS011;60603;52.548;13.420;2023-11-22T00:20:53;10.73;;;3.88;;
72573;SDS011;60603;52.548;13.420;2023-11-22T00:23:21;7.03;;;3.33;;
72573;SDS011;60603;52.548;13.420;2023-11-22T00:25:53;8.00;;;3.97;;
72573;SDS011;60603;52.548;13.420;2023-11-22T00:28:20;7.68;;;3.38;;
72573;SDS011;60603;52.548;13.420;2023-11-22T00:30:47;12.25;;;3.88;;
72573;SDS011;60603;52.548;13.420;2023-11-22T00:33:14;9.80;;;3.85;;
72573;SDS011;60603;52.548;13.420;2023-11-22T00:35:41;10.02;;;3.55;;
72573;SDS011;60603;52.548;13.420;2023-11-22T00:38:08;10.02;;;3.88;;
72573;SDS011;60603;52.548;13.420;2023-11-22T00:40:35;7.53;;;3.58;;
72573;SDS011;60603;52.548;13.420;2023-11-22T00:43:02;6.88;;;3.17;;
72573;SDS011;60603;52.548;13.420;2023-11-22T00:45:28;8.98;;;3.65;;
72573;SDS011;60603;52.548;13.420;2023-11-22T00:47:56;8.90;;;3.58;;
72573;SDS011;60603;52.548;13.420;2023-11-22T00:50:23;9.20;;;3.60;;
72573;SDS011;60603;52.548;13.420;2023-11-22T00:52:50;7.53;;;3.50;;
72573;SDS011;60603;52.548;13.420;2023-11-22T00:55:17;7.53;;;2.92;;
72573;SDS011;60603;52.548;13.420;2023-11-22T00:57:43;7.72;;;3.42;;
72573;SDS011;60603;52.548;13.420;2023-11-22T01:00:10;11.32;;;3.92;;
72573;SDS011;60603;52.548;13.420;2023-11-22T01:02:39;9.80;;;4.13;;
72573;SDS011;60603;52.548;13.420;2023-11-22T01:05:06;8.13;;;3.63;;
72573;SDS011;60603;52.548;13.420;2023-11-22T01:07:38;9.57;;;3.95;;
72573;SDS011;60603;52.548;13.420;2023-11-22T01:10:05;10.85;;;4.30;;
72573;SDS011;60603;52.548;13.420;2023-11-22T01:12:33;8.38;;;3.60;;
72573;SDS011;60603;52.548;13.420;2023-11-22T01:14:59;11.27;;;3.63;;
72573;SDS011;60603;52.548;13.420;2023-11-22T01:17:26;7.70;;;2.97;;
72573;SDS011;60603;52.548;13.420;2023-11-22T01:19:54;8.48;;;3.35;;
72573;SDS011;60603;52.548;13.420;2023-11-22T01:22:21;7.80;;;3.58;;
72573;SDS011;60603;52.548;13.420;2023-11-22T01:24:47;8.45;;;3.75;;
72573;SDS011;60603;52.548;13.420;2023-11-22T01:27:14;7.93;;;3.45;;
72573;SDS011;60603;52.548;13.420;2023-11-22T01:29:41;8.63;;;3.97;;
72573;SDS011;60603;52.548;13.420;2023-11-22T01:32:08;10.18;;;3.75;;
72573;SDS011;60603;52.548;13.420;2023-11-22T01:34:35;12.35;;;4.85;;
72573;SDS011;60603;52.548;13.420;2023-11-22T01:37:02;9.32;;;3.90;;
72573;SDS011;60603;52.548;13.420;2023-11-22T01:39:30;8.70;;;4.03;;
72573;SDS011;60603;52.548;13.420;2023-11-22T01:41:57;8.20;;;3.67;;
72573;SDS011;60603;52.548;13.420;2023-11-22T01:44:24;13.38;;;4.05;;
72573;SDS011;60603;52.548;13.420;2023-11-22T01:46:53;9.70;;;4.03;;
72573;SDS011;60603;52.548;13.420;2023-11-22T01:49:20;8.77;;;4.05;;
72573;SDS011;60603;52.548;13.420;2023-11-22T01:51:47;10.57;;;3.72;;
72573;SDS011;60603;52.548;13.420;2023-11-22T01:54:15;13.68;;;3.60;;
72573;SDS011;60603;52.548;13.420;2023-11-22T01:56:42;9.60;;;3.95;;
72573;SDS011;60603;52.548;13.420;2023-11-22T01:59:09;10.88;;;4.72;;
72573;SDS011;60603;52.548;13.420;2023-11-22T02:01:38;9.55;;;3.35;;
72573;SDS011;60603;52.548;13.420;2023-11-22T02:04:05;11.40;;;4.25;;
72573;SDS011;60603;52.548;13.420;2023-11-22T02:06:33;11.20;;;4.00;;
72573;SDS011;60603;52.548;13.420;2023-11-22T02:09:00;9.30;;;4.00;;
72573;SDS011;60603;52.548;13.420;2023-11-22T02:11:27;11.05;;;4.18;;
72573;SDS011;60603;52.548;13.420;2023-11-22T02:13:54;11.48;;;3.90;;
72573;SDS011;60603;52.548;13.420;2023-11-22T02:16:22;10.50;;;4.63;;
72573;SDS011;60603;52.548;13.420;2023-11-22T02:18:49;9.02;;;4.35;;
72573;SDS011;60603;52.548;13.420;2023-11-22T02:21:16;10.45;;;3.92;;
72573;SDS011;60603;52.548;13.420;2023-11-22T02:23:43;12.20;;;4.00;;
72573;SDS011;60603;52.548;13.420;2023-11-22T02:26:10;9.25;;;4.22;;
72573;SDS011;60603;52.548;13.420;2023-11-22T02:28:37;8.90;;;4.05;;
72573;SDS011;60603;52.548;13.420;2023-11-22T02:31:04;8.88;;;4.03;;
72573;SDS011;60603;52.548;13.420;2023-11-22T02:33:31;9.40;;;4.00;;
72573;SDS011;60603;52.548;13.420;2023-11-22T02:35:58;8.10;;;3.22;;
72573;SDS011;60603;52.548;13.420;2023-11-22T02:38:25;7.80;;;3.35;;
72573;SDS011;60603;52.548;13.420;2023-11-22T02:40:52;7.63;;;2.83;;
72573;SDS011;60603;52.548;13.420;2023-11-22T02:43:20;7.07;;;3.33;;
72573;SDS011;60603;52.548;13.420;2023-11-22T02:45:47;9.80;;;3.63;;
72573;SDS011;60603;52.548;13.420;2023-11-22T02:48:14;9.48;;;4.25;;
72573;SDS011;60603;52.548;13.420;2023-11-22T02:50:41;7.55;;;3.90;;
72573;SDS011;60603;52.548;13.420;2023-11-22T02:53:10;9.73;;;3.97;;
72573;SDS011;60603;52.548;13.420;2023-11-22T02:55:37;6.93;;;2.90;;
72573;SDS011;60603;52.548;13.420;2023-11-22T02:58:04;10.93;;;4.03;;
72573;SDS011;60603;52.548;13.420;2023-11-22T03:00:31;9.30;;;3.63;;
72573;SDS011;60603;52.548;13.420;2023-11-22T03:03:00;12.02;;;4.82;;
72573;SDS011;60603;52.548;13.420;2023-11-22T03:05:30;13.50;;;4.53;;
72573;SDS011;60603;52.548;13.420;2023-11-22T03:07:57;10.05;;;3.65;;
72573;SDS011;60603;52.548;13.420;2023-11-22T03:10:24;9.07;;;4.25;;
72573;SDS011;60603;52.548;13.420;2023-11-22T03:12:52;7.60;;;3.72;;
72573;SDS011;60603;52.548;13.420;2023-11-22T03:15:20;9.27;;;4.13;;
72573;SDS011;60603;52.548;13.420;2023-11-22T03:17:47;9.93;;;4.20;;
72573;SDS011;60603;52.548;13.420;2023-11-22T03:20:15;9.07;;;3.72;;
72573;SDS011;60603;52.548;13.420;2023-11-22T03:22:42;10.52;;;4.88;;
72573;SDS011;60603;52.548;13.420;2023-11-22T03:25:17;9.55;;;4.25;;
72573;SDS011;60603;52.548;13.420;2023-11-22T03:27:44;8.88;;;3.90;;
72573;SDS011;60603;52.548;13.420;2023-11-22T03:30:12;10.57;;;4.25;;
72573;SDS011;60603;52.548;13.420;2023-11-22T03:32:41;8.90;;;3.67;;
72573;SDS011;60603;52.548;13.420;2023-11-22T03:35:10;8.25;;;3.35;;
72573;SDS011;60603;52.548;13.420;2023-11-22T03:37:38;9.90;;;4.82;;
72573;SDS011;60603;52.548;13.420;2023-11-22T03:40:05;10.73;;;4.40;;
72573;SDS011;60603;52.548;13.420;2023-11-22T03:42:34;11.38;;;4.57;;
72573;SDS011;60603;52.548;13.420;2023-11-22T03:45:03;9.00;;;3.72;;
72573;SDS011;60603;52.548;13.420;2023-11-22T03:47:31;12.25;;;4.85;;
72573;SDS011;60603;52.548;13.420;2023-11-22T03:49:59;7.25;;;3.53;;
72573;SDS011;60603;52.548;13.420;2023-11-22T03:52:26;12.70;;;4.13;;
72573;SDS011;60603;52.548;13.420;2023-11-22T03:54:53;8.48;;;4.00;;
72573;SDS011;60603;52.548;13.420;2023-11-22T03:57:20;6.95;;;3.28;;
72573;SDS011;60603;52.548;13.420;2023-11-22T03:59:47;10.45;;;4.43;;
72573;SDS011;60603;52.548;13.420;2023-11-22T04:02:15;10.63;;;4.35;;
72573;SDS011;60603;52.548;13.420;2023-11-22T04:04:42;8.63;;;4.25;;
72573;SDS011;60603;52.548;13.420;2023-11-22T04:07:08;9.27;;;4.03;;
72573;SDS011;60603;52.548;13.420;2023-11-22T04:09:35;7.63;;;3.30;;
72573;SDS011;60603;52.548;13.420;2023-11-22T04:12:02;8.13;;;3.58;;
72573;SDS011;60603;52.548;13.420;2023-11-22T04:14:30;12.20;;;4.63;;
72573;SDS011;60603;52.548;13.420;2023-11-22T04:16:57;11.40;;;4.13;;
72573;SDS011;60603;52.548;13.420;2023-11-22T04:19:25;8.07;;;3.72;;
72573;SDS011;60603;52.548;13.420;2023-11-22T04:21:52;12.13;;;4.55;;
72573;SDS011;60603;52.548;13.420;2023-11-22T04:24:20;11.23;;;5.05;;
72573;SDS011;60603;52.548;13.420;2023-11-22T04:26:47;9.63;;;4.70;;
72573;SDS011;60603;52.548;13.420;2023-11-22T04:29:15;11.30;;;3.85;;
72573;SDS011;60603;52.548;13.420;2023-11-22T04:31:43;12.32;;;4.90;;
72573;SDS011;60603;52.548;13.420;2023-11-22T04:34:10;12.73;;;4.68;;
72573;SDS011;60603;52.548;13.420;2023-11-22T04:36:36;12.52;;;5.13;;
72573;SDS011;60603;52.548;13.420;2023-11-22T04:39:05;10.02;;;4.40;;
72573;SDS011;60603;52.548;13.420;2023-11-22T04:41:33;9.63;;;4.43;;
72573;SDS011;60603;52.548;13.420;2023-11-22T04:44:01;9.98;;;4.90;;
72573;SDS011;60603;52.548;13.420;2023-11-22T04:46:28;10.75;;;4.30;;
72573;SDS011;60603;52.548;13.420;2023-11-22T04:48:55;9.68;;;4.22;;
72573;SDS011;60603;52.548;13.420;2023-11-22T04:51:22;12.05;;;3.92;;
72573;SDS011;60603;52.548;13.420;2023-11-22T04:53:50;9.82;;;4.60;;
72573;SDS011;60603;52.548;13.420;2023-11-22T04:56:17;11.75;;;4.30;;
72573;SDS011;60603;52.548;13.420;2023-11-22T04:58:44;11.77;;;4.53;;
72573;SDS011;60603;52.548;13.420;2023-11-22T05:01:11;9.00;;;4.25;;
72573;SDS011;60603;52.548;13.420;2023-11-22T05:03:39;9.82;;;4.75;;
72573;SDS011;60603;52.548;13.420;2023-11-22T05:06:05;9.98;;;5.05;;
72573;SDS011;60603;52.548;13.420;2023-11-22T05:08:33;12.77;;;5.25;;
72573;SDS011;60603;52.548;13.420;2023-11-22T05:11:00;9.40;;;4.30;;
72573;SDS011;60603;52.548;13.420;2023-11-22T05:13:29;10.60;;;4.07;;
72573;SDS011;60603;52.548;13.420;2023-11-22T05:15:56;12.45;;;4.28;;
72573;SDS011;60603;52.548;13.420;2023-11-22T05:18:23;10.70;;;4.53;;
72573;SDS011;60603;52.548;13.420;2023-11-22T05:20:50;12.52;;;5.22;;
72573;SDS011;60603;52.548;13.420;2023-11-22T05:23:17;10.07;;;4.65;;
72573;SDS011;60603;52.548;13.420;2023-11-22T05:25:44;9.30;;;4.53;;
72573;SDS011;60603;52.548;13.420;2023-11-22T05:28:11;12.10;;;4.97;;
72573;SDS011;60603;52.548;13.420;2023-11-22T05:30:38;11.27;;;4.25;;
72573;SDS011;60603;52.548;13.420;2023-11-22T05:33:05;10.70;;;4.97;;
72573;SDS011;60603;52.548;13.420;2023-11-22T05:35:33;15.45;;;4.85;;
72573;SDS011;60603;52.548;13.420;2023-11-22T05:38:00;11.48;;;4.38;;
72573;SDS011;60603;52.548;13.420;2023-11-22T05:40:26;10.30;;;4.55;;
72573;SDS011;60603;52.548;13.420;2023-11-22T05:42:53;9.93;;;4.80;;
72573;SDS011;60603;52.548;13.420;2023-11-22T05:45:20;10.52;;;4.60;;
72573;SDS011;60603;52.548;13.420;2023-11-22T05:47:47;9.98;;;4.03;;
72573;SDS011;60603;52.548;13.420;2023-11-22T05:50:14;10.68;;;4.75;;
72573;SDS011;60603;52.548;13.420;2023-11-22T05:52:42;10.13;;;4.20;;
72573;SDS011;60603;52.548;13.420;2023-11-22T05:55:10;9.65;;;4.50;;
72573;SDS011;60603;52.548;13.420;2023-11-22T05:57:40;9.10;;;3.90;;
72573;SDS011;60603;52.548;13.420;2023-11-22T06:00:08;9.70;;;4.15;;
72573;SDS011;60603;52.548;13.420;2023-11-22T06:02:35;11.70;;;4.75;;
72573;SDS011;60603;52.548;13.420;2023-11-22T06:05:03;10.98;;;5.32;;
72573;SDS011;60603;52.548;13.420;2023-11-22T06:07:32;11.77;;;4.07;;
72573;SDS011;60603;52.548;13.420;2023-11-22T06:09:59;12.88;;;4.97;;
72573;SDS011;60603;52.548;13.420;2023-11-22T06:12:29;10.23;;;4.53;;
72573;SDS011;60603;52.548;13.420;2023-11-22T06:14:56;9.30;;;3.72;;
72573;SDS011;60603;52.548;13.420;2023-11-22T06:17:23;9.60;;;3.88;;
72573;SDS011;60603;52.548;13.420;2023-11-22T06:19:50;12.35;;;4.90;;
72573;SDS011;60603;52.548;13.420;2023-11-22T06:22:17;9.15;;;4.32;;
72573;SDS011;60603;52.548;13.420;2023-11-22T06:24:46;10.20;;;4.60;;
72573;SDS011;60603;52.548;13.420;2023-11-22T06:27:15;12.35;;;4.93;;
72573;SDS011;60603;52.548;13.420;2023-11-22T06:29:41;9.75;;;4.50;;
72573;SDS011;60603;52.548;13.420;2023-11-22T06:32:12;9.82;;;4.55;;
72573;SDS011;60603;52.548;13.420;2023-11-22T06:34:39;11.85;;;4.97;;
72573;SDS011;60603;52.548;13.420;2023-11-22T06:37:06;11.38;;;5.60;;
72573;SDS011;60603;52.548;13.420;2023-11-22T06:39:35;12.10;;;5.05;;
72573;SDS011;60603;52.548;13.420;2023-11-22T06:42:02;12.93;;;4.40;;
72573;SDS011;60603;52.548;13.420;2023-11-22T06:44:29;12.55;;;5.40;;
72573;SDS011;60603;52.548;13.420;2023-11-22T06:46:56;12.10;;;4.82;;
72573;SDS011;60603;52.548;13.420;2023-11-22T06:49:23;11.27;;;4.97;;
72573;SDS011;60603;52.548;13.420;2023-11-22T06:51:50;12.77;;;4.72;;
72573;SDS011;60603;52.548;13.420;2023-11-22T06:54:21;11.50;;;4.68;;
72573;SDS011;60603;52.548;13.420;2023-11-22T06:56:48;11.25;;;5.10;;
72573;SDS011;60603;52.548;13.420;2023-11-22T06:59:14;10.75;;;4.95;;
72573;SDS011;60603;52.548;13.420;2023-11-22T07:01:41;10.18;;;4.78;;
72573;SDS011;60603;52.548;13.420;2023-11-22T07:04:08;11.95;;;5.05;;
72573;SDS011;60603;52.548;13.420;2023-11-22T07:06:36;11.82;;;4.93;;
72573;SDS011;60603;52.548;13.420;2023-11-22T07:09:04;13.48;;;4.82;;
72573;SDS011;60603;52.548;13.420;2023-11-22T07:11:31;13.10;;;5.50;;
72573;SDS011;60603;52.548;13.420;2023-11-22T07:13:58;10.52;;;4.85;;
72573;SDS011;60603;52.548;13.420;2023-11-22T07:16:25;10.88;;;4.55;;
72573;SDS011;60603;52.548;13.420;2023-11-22T07:18:52;12.52;;;5.15;;
72573;SDS011;60603;52.548;13.420;2023-11-22T07:21:19;11.75;;;5.05;;
72573;SDS011;60603;52.548;13.420;2023-11-22T07:23:47;10.63;;;4.88;;
72573;SDS011;60603;52.548;13.420;2023-11-22T07:26:17;15.13;;;6.00;;
72573;SDS011;60603;52.548;13.420;2023-11-22T07:28:43;12.15;;;4.70;;
72573;SDS011;60603;52.548;13.420;2023-11-22T07:31:11;13.18;;;5.53;;
72573;SDS011;60603;52.548;13.420;2023-11-22T07:33:38;14.60;;;5.82;;
72573;SDS011;60603;52.548;13.420;2023-11-22T07:36:08;14.55;;;5.53;;
72573;SDS011;60603;52.548;13.420;2023-11-22T07:38:35;11.75;;;5.00;;
72573;SDS011;60603;52.548;13.420;2023-11-22T07:41:05;16.35;;;5.30;;
72573;SDS011;60603;52.548;13.420;2023-11-22T07:43:33;12.20;;;5.10;;
72573;SDS011;60603;52.548;13.420;2023-11-22T07:46:06;11.05;;;4.88;;
72573;SDS011;60603;52.548;13.420;2023-11-22T07:48:40;13.80;;;6.43;;
72573;SDS011;60603;52.548;13.420;2023-11-22T07:51:09;12.10;;;5.47;;
72573;SDS011;60603;52.548;13.420;2023-11-22T07:53:36;12.15;;;5.45;;
72573;SDS011;60603;52.548;13.420;2023-11-22T07:56:03;16.65;;;5.82;;
72573;SDS011;60603;52.548;13.420;2023-11-22T07:58:31;11.32;;;6.05;;
72573;SDS011;60603;52.548;13.420;2023-11-22T08:00:58;14.30;;;6.45;;
72573;SDS011;60603;52.548;13.420;2023-11-22T08:03:26;20.30;;;5.78;;
72573;SDS011;60603;52.548;13.420;2023-11-22T08:05:53;11.60;;;5.43;;
72573;SDS011;60603;52.548;13.420;2023-11-22T08:08:22;14.52;;;5.55;;
72573;SDS011;60603;52.548;13.420;2023-11-22T08:10:52;15.57;;;6.32;;
72573;SDS011;60603;52.548;13.420;2023-11-22T08:13:19;14.23;;;5.38;;
72573;SDS011;60603;52.548;13.420;2023-11-22T08:15:49;11.25;;;4.82;;
72573;SDS011;60603;52.548;13.420;2023-11-22T08:18:17;12.20;;;5.70;;
72573;SDS011;60603;52.548;13.420;2023-11-22T08:20:44;11.20;;;5.40;;
72573;SDS011;60603;52.548;13.420;2023-11-22T08:23:11;12.60;;;5.60;;
72573;SDS011;60603;52.548;13.420;2023-11-22T08:25:40;16.40;;;5.75;;
72573;SDS011;60603;52.548;13.420;2023-11-22T08:28:25;10.30;;;5.43;;
72573;SDS011;60603;52.548;13.420;2023-11-22T08:30:52;12.52;;;5.18;;
72573;SDS011;60603;52.548;13.420;2023-11-22T08:33:19;12.02;;;5.40;;
72573;SDS011;60603;52.548;13.420;2023-11-22T08:35:47;12.50;;;5.63;;
72573;SDS011;60603;52.548;13.420;2023-11-22T08:38:17;12.75;;;5.45;;
72573;SDS011;60603;52.548;13.420;2023-11-22T08:40:45;15.90;;;5.38;;
72573;SDS011;60603;52.548;13.420;2023-11-22T08:43:13;13.18;;;5.80;;
72573;SDS011;60603;52.548;13.420;2023-11-22T08:45:40;14.43;;;5.95;;
72573;SDS011;60603;52.548;13.420;2023-11-22T08:48:07;16.80;;;6.55;;
72573;SDS011;60603;52.548;13.420;2023-11-22T08:50:34;14.98;;;6.80;;
72573;SDS011;60603;52.548;13.420;2023-11-22T08:53:01;14.10;;;5.53;;
72573;SDS011;60603;52.548;13.420;2023-11-22T08:55:29;14.02;;;6.13;;
72573;SDS011;60603;52.548;13.420;2023-11-22T08:57:55;16.20;;;5.75;;
72573;SDS011;60603;52.548;13.420;2023-11-22T09:00:22;11.65;;;5.13;;
72573;SDS011;60603;52.548;13.420;2023-11-22T09:02:49;14.18;;;5.93;;
72573;SDS011;60603;52.548;13.420;2023-11-22T09:05:16;10.73;;;5.50;;
72573;SDS011;60603;52.548;13.420;2023-11-22T09:07:48;14.32;;;5.88;;
72573;SDS011;60603;52.548;13.420;2023-11-22T09:10:31;12.77;;;5.15;;
72573;SDS011;60603;52.548;13.420;2023-11-22T09:12:58;9.73;;;4.90;;
72573;SDS011;60603;52.548;13.420;2023-11-22T09:15:26;11.07;;;5.47;;
72573;SDS011;60603;52.548;13.420;2023-11-22T09:17:55;10.30;;;5.25;;
72573;SDS011;60603;52.548;13.420;2023-11-22T09:20:24;13.88;;;5.38;;
72573;SDS011;60603;52.548;13.420;2023-11-22T09:22:52;12.32;;;5.47;;
72573;SDS011;60603;52.548;13.420;2023-11-22T09:25:26;10.50;;;5.20;;
72573;SDS011;60603;52.548;13.420;2023-11-22T09:27:55;12.30;;;5.45;;
72573;SDS011;60603;52.548;13.420;2023-11-22T09:30:29;13.88;;;5.25;;
72573;SDS011;60603;52.548;13.420;2023-11-22T09:35:34;8.63;;;4.82;;
72573;SDS011;60603;52.548;13.420;2023-11-22T09:38:02;10.23;;;5.15;;
72573;SDS011;60603;52.548;13.420;2023-11-22T09:40:30;10.73;;;4.38;;
72573;SDS011;60603;52.548;13.420;2023-11-22T09:43:00;12.55;;;4.82;;
72573;SDS011;60603;52.548;13.420;2023-11-22T09:45:29;14.45;;;5.55;;
72573;SDS011;60603;52.548;13.420;2023-11-22T09:47:57;8.50;;;4.13;;
72573;SDS011;60603;52.548;13.420;2023-11-22T09:53:05;10.43;;;4.22;;
72573;SDS011;60603;52.548;13.420;2023-11-22T09:55:38;8.45;;;3.80;;
72573;SDS011;60603;52.548;13.420;2023-11-22T09:58:11;8.57;;;4.03;;
72573;SDS011;60603;52.548;13.420;2023-11-22T10:00:40;9.20;;;4.35;;
72573;SDS011;60603;52.548;13.420;2023-11-22T10:03:07;12.20;;;4.57;;
72573;SDS011;60603;52.548;13.420;2023-11-22T10:05:41;8.38;;;4.18;;
72573;SDS011;60603;52.548;13.420;2023-11-22T10:08:09;9.75;;;3.78;;
72573;SDS011;60603;52.548;13.420;2023-11-22T10:10:36;9.20;;;4.25;;
72573;SDS011;60603;52.548;13.420;2023-11-22T10:13:06;10.15;;;4.00;;
72573;SDS011;60603;52.548;13.420;2023-11-22T10:15:33;11.35;;;4.40;;
72573;SDS011;60603;52.548;13.420;2023-11-22T10:18:00;7.82;;;3.72;;
72573;SDS011;60603;52.548;13.420;2023-11-22T10:20:37;8.75;;;4.20;;
72573;SDS011;60603;52.548;13.420;2023-11-22T10:23:09;10.80;;;4.18;;
72573;SDS011;60603;52.548;13.420;2023-11-22T10:25:37;11.07;;;4.68;;
72573;SDS011;60603;52.548;13.420;2023-11-22T10:28:10;8.65;;;3.78;;
72573;SDS011;60603;52.548;13.420;2023-11-22T10:30:38;11.65;;;4.50;;
72573;SDS011;60603;52.548;13.420;2023-11-22T10:33:07;10.95;;;4.82;;
72573;SDS011;60603;52.548;13.420;2023-11-22T10:35:43;7.88;;;3.63;;
72573;SDS011;60603;52.548;13.420;2023-11-22T10:38:18;12.02;;;4.47;;
72573;SDS011;60603;52.548;13.420;2023-11-22T10:40:46;11.52;;;4.30;;
72573;SDS011;60603;52.548;13.420;2023-11-22T10:43:15;11.52;;;4.43;;
72573;SDS011;60603;52.548;13.420;2023-11-22T10:45:43;11.20;;;4.13;;
72573;SDS011;60603;52.548;13.420;2023-11-22T10:48:15;9.27;;;3.85;;
72573;SDS011;60603;52.548;13.420;2023-11-22T10:50:46;9.40;;;3.85;;
72573;SDS011;60603;52.548;13.420;2023-11-22T10:53:20;9.07;;;3.95;;
72573;SDS011;60603;52.548;13.420;2023-11-22T10:55:49;8.27;;;3.75;;
72573;SDS011;60603;52.548;13.420;2023-11-22T10:58:21;8.75;;;3.70;;
72573;SDS011;60603;52.548;13.420;2023-11-22T11:00:49;10.18;;;3.97;;
72573;SDS011;60603;52.548;13.420;2023-11-22T11:03:17;9.32;;;4.57;;
72573;SDS011;60603;52.548;13.420;2023-11-22T11:05:50;7.63;;;3.63;;
72573;SDS011;60603;52.548;13.420;2023-11-22T11:08:20;12.00;;;4.30;;
72573;SDS011;60603;52.548;13.420;2023-11-22T11:10:48;9.85;;;3.85;;
72573;SDS011;60603;52.548;13.420;2023-11-22T11:13:15;11.05;;;4.28;;
72573;SDS011;60603;52.548;13.420;2023-11-22T11:15:44;9.23;;;3.65;;
72573;SDS011;60603;52.548;13.420;2023-11-22T11:18:13;8.52;;;3.70;;
72573;SDS011;60603;52.548;13.420;2023-11-22T11:20:46;10.73;;;4.22;;
72573;SDS011;60603;52.548;13.420;2023-11-22T11:23:20;7.55;;;3.70;;
72573;SDS011;60603;52.548;13.420;2023-11-22T11:25:49;10.20;;;4.00;;
72573;SDS011;60603;52.548;13.420;2023-11-22T11:28:16;8.80;;;4.32;;
72573;SDS011;60603;52.548;13.420;2023-11-22T11:30:46;10.43;;;4.43;;
72573;SDS011;60603;52.548;13.420;2023-11-22T11:33:33;9.10;;;3.90;;
72573;SDS011;60603;52.548;13.420;2023-11-22T11:36:01;7.25;;;3.83;;
72573;SDS011;60603;52.548;13.420;2023-11-22T11:38:35;8.35;;;3.97;;
72573;SDS011;60603;52.548;13.420;2023-11-22T11:41:08;9.73;;;4.10;;
72573;SDS011;60603;52.548;13.420;2023-11-22T11:43:42;11.02;;;4.10;;
72573;SDS011;60603;52.548;13.420;2023-11-22T11:46:09;10.20;;;4.40;;
72573;SDS011;60603;52.548;13.420;2023-11-22T11:48:37;8.75;;;4.47;;
72573;SDS011;60603;52.548;13.420;2023-11-22T11:51:04;9.48;;;4.38;;
72573;SDS011;60603;52.548;13.420;2023-11-22T11:53:33;11.77;;;4.13;;
72573;SDS011;60603;52.548;13.420;2023-11-22T11:56:01;9.75;;;4.25;;
72573;SDS011;60603;52.548;13.420;2023-11-22T11:58:28;9.30;;;4.15;;
72573;SDS011;60603;52.548;13.420;2023-11-22T12:00:55;12.27;;;4.07;;
72573;SDS011;60603;52.548;13.420;2023-11-22T12:03:22;9.50;;;4.60;;
72573;SDS011;60603;52.548;13.420;2023-11-22T12:05:50;11.02;;;4.32;;
72573;SDS011;60603;52.548;13.420;2023-11-22T12:08:17;10.18;;;4.15;;
72573;SDS011;60603;52.548;13.420;2023-11-22T12:10:46;10.65;;;4.25;;
72573;SDS011;60603;52.548;13.420;2023-11-22T12:13:20;11.52;;;4.90;;
72573;SDS011;60603;52.548;13.420;2023-11-22T12:15:48;8.02;;;4.22;;
72573;SDS011;60603;52.548;13.420;2023-11-22T12:18:15;11.57;;;4.78;;
72573;SDS011;60603;52.548;13.420;2023-11-22T12:20:44;10.05;;;4.28;;
72573;SDS011;60603;52.548;13.420;2023-11-22T12:23:32;8.93;;;4.25;;
72573;SDS011;60603;52.548;13.420;2023-11-22T12:26:01;10.18;;;3.47;;
72573;SDS011;60603;52.548;13.420;2023-11-22T12:28:31;8.13;;;3.85;;
72573;SDS011;60603;52.548;13.420;2023-11-22T12:31:08;7.03;;;3.65;;
72573;SDS011;60603;52.548;13.420;2023-11-22T12:33:36;8.30;;;3.72;;
72573;SDS011;60603;52.548;13.420;2023-11-22T12:36:04;8.68;;;3.30;;
72573;SDS011;60603;52.548;13.420;2023-11-22T12:38:31;7.57;;;3.20;;
72573;SDS011;60603;52.548;13.420;2023-11-22T12:40:58;7.82;;;3.50;;
72573;SDS011;60603;52.548;13.420;2023-11-22T12:43:25;8.27;;;3.42;;
72573;SDS011;60603;52.548;13.420;2023-11-22T12:46:05;9.98;;;4.25;;
72573;SDS011;60603;52.548;13.420;2023-11-22T12:48:33;7.65;;;3.33;;
72573;SDS011;60603;52.548;13.420;2023-11-22T12:51:00;7.85;;;3.70;;
72573;SDS011;60603;52.548;13.420;2023-11-22T12:53:27;9.25;;;4.10;;
72573;SDS011;60603;52.548;13.420;2023-11-22T12:55:55;10.10;;;4.07;;
72573;SDS011;60603;52.548;13.420;2023-11-22T12:58:23;8.18;;;3.72;;
72573;SDS011;60603;52.548;13.420;2023-11-22T13:00:51;8.70;;;3.60;;
72573;SDS011;60603;52.548;13.420;2023-11-22T13:03:29;9.57;;;4.07;;
72573;SDS011;60603;52.548;13.420;2023-11-22T13:05:57;10.30;;;4.22;;
72573;SDS011;60603;52.548;13.420;2023-11-22T13:08:23;8.07;;;3.55;;
72573;SDS011;60603;52.548;13.420;2023-11-22T13:10:55;7.82;;;4.30;;
72573;SDS011;60603;52.548;13.420;2023-11-22T13:13:25;10.43;;;4.72;;
72573;SDS011;60603;52.548;13.420;2023-11-22T13:15:54;9.90;;;4.28;;
72573;SDS011;60603;52.548;13.420;2023-11-22T13:18:21;10.38;;;4.28;;
72573;SDS011;60603;52.548;13.420;2023-11-22T13:20:48;11.52;;;4.72;;
72573;SDS011;60603;52.548;13.420;2023-11-22T13:23:16;9.13;;;4.45;;
72573;SDS011;60603;52.548;13.420;2023-11-22T13:25:44;10.90;;;5.07;;
72573;SDS011;60603;52.548;13.420;2023-11-22T13:28:12;10.15;;;5.40;;
72573;SDS011;60603;52.548;13.420;2023-11-22T13:30:43;8.32;;;4.30;;
72573;SDS011;60603;52.548;13.420;2023-11-22T13:33:10;9.10;;;4.18;;
72573;SDS011;60603;52.548;13.420;2023-11-22T13:35:39;7.70;;;3.75;;
72573;SDS011;60603;52.548;13.420;2023-11-22T13:38:05;8.60;;;4.28;;
72573;SDS011;60603;52.548;13.420;2023-11-22T13:40:38;9.15;;;3.53;;
72573;SDS011;60603;52.548;13.420;2023-11-22T13:43:12;8.82;;;4.28;;
72573;SDS011;60603;52.548;13.420;2023-11-22T13:45:43;8.88;;;3.95;;
72573;SDS011;60603;52.548;13.420;2023-11-22T13:48:12;8.77;;;3.60;;
72573;SDS011;60603;52.548;13.420;2023-11-22T13:50:39;9.45;;;3.20;;
72573;SDS011;60603;52.548;13.420;2023-11-22T13:53:08;7.22;;;2.88;;
72573;SDS011;60603;52.548;13.420;2023-11-22T13:55:38;5.25;;;2.42;;
72573;SDS011;60603;52.548;13.420;2023-11-22T13:58:05;6.07;;;2.67;;
72573;SDS011;60603;52.548;13.420;2023-11-22T14:00:32;6.13;;;2.88;;
72573;SDS011;60603;52.548;13.420;2023-11-22T14:03:01;4.72;;;2.50;;
72573;SDS011;60603;52.548;13.420;2023-11-22T14:05:37;5.45;;;2.42;;
72573;SDS011;60603;52.548;13.420;2023-11-22T14:08:05;7.00;;;2.17;;
72573;SDS011;60603;52.548;13.420;2023-11-22T14:10:33;6.47;;;2.65;;
72573;SDS011;60603;52.548;13.420;2023-11-22T14:13:00;7.35;;;2.97;;
72573;SDS011;60603;52.548;13.420;2023-11-22T14:15:29;6.10;;;2.72;;
72573;SDS011;60603;52.548;13.420;2023-11-22T14:17:57;6.57;;;2.72;;
72573;SDS011;60603;52.548;13.420;2023-11-22T14:20:24;8.38;;;3.35;;
72573;SDS011;60603;52.548;13.420;2023-11-22T14:22:52;8.05;;;3.95;;
72573;SDS011;60603;52.548;13.420;2023-11-22T14:25:19;11.00;;;3.75;;
72573;SDS011;60603;52.548;13.420;2023-11-22T14:27:47;8.70;;;3.85;;
72573;SDS011;60603;52.548;13.420;2023-11-22T14:30:19;7.75;;;3.28;;
72573;SDS011;60603;52.548;13.420;2023-11-22T14:32:47;9.63;;;3.40;;
72573;SDS011;60603;52.548;13.420;2023-11-22T14:35:15;8.23;;;3.92;;
72573;SDS011;60603;52.548;13.420;2023-11-22T14:37:44;9.38;;;3.55;;
72573;SDS011;60603;52.548;13.420;2023-11-22T14:40:11;11.80;;;4.30;;